Time;durP1;ratioP1;P1;durP2;ratioP2;P2;SDS_P1;SDS_P2;PMS_P1;PMS_P2;Temp;Humidity;BMP_temperature;BMP_pressure;BME280_temperature;BME280_humidity;BME280_pressure;Samples;Min_cycle;Max_cycle;Signal;HPM_P1;HPM_P2
2021/09/11 00:02:58;;;;;;;;;;;17.60;99.90;;;16.21;100.00;95885.47;10521149;28;2071;-73
2021/09/11 00:08:01;;;;;;;;;;;17.30;99.90;;;16.03;100.00;95880.19;10516097;28;2092;-73
2021/09/11 00:13:04;;;;;;;;;;;17.00;99.90;;;15.95;100.00;95889.84;10523897;28;2093;-74
2021/09/11 00:18:07;;;;;;;;;;;16.80;99.90;;;15.77;100.00;95883.44;10513827;28;2118;-77
2021/09/11 00:23:10;;;;;;;;;;;16.70;99.90;;;15.68;100.00;95880.66;10513536;28;2079;-74
2021/09/11 00:28:13;;;;;;;;;;;16.50;99.90;;;15.71;100.00;95883.88;10503254;28;2128;-74
2021/09/11 00:33:15;;;;;;;;;;;16.50;99.90;;;15.65;100.00;95883.19;10513455;28;2067;-77
2021/09/11 00:38:18;;;;;;;;;;;16.50;99.90;;;15.66;100.00;95882.88;10511901;28;2143;-75
2021/09/11 00:43:21;;;;;;;;;;;16.50;99.90;;;15.57;100.00;95886.56;10521230;28;2123;-76
2021/09/11 00:48:25;;;;;;;;;;;16.40;99.90;;;15.58;100.00;95885.44;10519644;28;2200;-78
2021/09/11 00:53:27;;;;;;;;;;;16.40;99.90;;;15.65;100.00;95894.03;10515839;28;2147;-77
2021/09/11 00:58:30;;;;;;;;;;;16.50;99.90;;;15.63;100.00;95896.22;10512630;28;2201;-76
2021/09/11 01:03:33;;;;;;;;;;;16.50;99.90;;;15.66;100.00;95893.72;10510493;28;2191;-77
2021/09/11 01:08:36;;;;;;;;;;;16.50;99.90;;;15.64;100.00;95895.13;10514715;28;2082;-76
2021/09/11 01:13:47;;;;;;;;;;;16.50;99.90;;;15.71;100.00;95892.00;10515193;28;2216;-76
2021/09/11 01:18:50;;;;;;;;;;;16.50;99.90;;;15.70;100.00;95896.63;10521345;28;2194;-76
2021/09/11 01:23:52;;;;;;;;;;;16.50;99.90;;;15.68;100.00;95891.50;10519459;28;2094;-78
2021/09/11 01:28:59;;;;;;;;;;;16.60;99.90;;;15.72;100.00;95889.00;10515338;28;2176;-77
2021/09/11 01:34:02;;;;;;;;;;;16.60;99.90;;;15.72;100.00;95891.72;10523825;28;2138;-76
2021/09/11 01:39:05;;;;;;;;;;;16.60;99.90;;;15.74;100.00;95894.91;10521003;28;1999;-75
2021/09/11 01:44:08;;;;;;;;;;;16.60;99.90;;;15.73;100.00;95887.09;10525417;28;2063;-75
2021/09/11 01:49:10;;;;;;;;;;;16.60;99.90;;;15.74;100.00;95896.81;10525248;28;2078;-76
2021/09/11 01:54:13;;;;;;;;;;;16.60;99.90;;;15.76;100.00;95894.59;10520711;28;2130;-76
2021/09/11 01:59:16;;;;;;;;;;;16.60;99.90;;;15.74;100.00;95903.03;10518535;28;2228;-75
2021/09/11 02:04:19;;;;;;;;;;;16.70;99.90;;;15.71;100.00;95910.97;10519019;28;2083;-75
2021/09/11 02:09:22;;;;;;;;;;;16.60;99.90;;;15.73;100.00;95914.19;10508373;28;2041;-75
2021/09/11 02:14:25;;;;;;;;;;;16.60;99.90;;;15.70;100.00;95917.50;10512583;28;2088;-75
2021/09/11 02:19:27;;;;;;;;;;;16.60;99.90;;;15.72;100.00;95931.56;10515377;28;2114;-75
2021/09/11 02:24:30;;;;;;;;;;;16.60;99.90;;;15.75;100.00;95930.94;10513259;28;2130;-74
2021/09/11 02:29:37;;;;;;;;;;;16.70;99.90;;;15.74;100.00;95932.06;10516777;28;2061;-74
2021/09/11 02:34:40;;;;;;;;;;;16.60;99.90;;;15.76;100.00;95935.25;10518153;28;2074;-75
2021/09/11 02:39:43;;;;;;;;;;;16.60;99.90;;;15.78;100.00;95935.78;10522340;28;2081;-75
2021/09/11 02:44:46;;;;;;;;;;;16.70;99.90;;;15.76;100.00;95941.47;10511599;28;2065;-75
2021/09/11 02:49:49;;;;;;;;;;;16.60;99.90;;;15.76;100.00;95943.38;10509812;28;2171;-76
2021/09/11 02:54:52;;;;;;;;;;;16.60;99.90;;;15.76;100.00;95946.09;10522223;28;2205;-76
2021/09/11 02:59:55;;;;;;;;;;;16.70;99.90;;;15.73;100.00;95944.00;10519564;28;2035;-74
2021/09/11 03:04:58;;;;;;;;;;;16.60;99.90;;;15.72;100.00;95945.91;10513375;28;2067;-75
2021/09/11 03:10:00;;;;;;;;;;;16.60;99.90;;;15.65;100.00;95940.91;10514997;28;2014;-75
2021/09/11 03:15:03;;;;;;;;;;;16.60;99.90;;;15.59;100.00;95942.06;10518151;28;2142;-74
2021/09/11 03:20:06;;;;;;;;;;;16.50;99.90;;;15.53;100.00;95939.78;10519724;28;2115;-75
2021/09/11 03:25:09;;;;;;;;;;;16.50;99.90;;;15.45;100.00;95937.72;10523592;28;2020;-75
2021/09/11 03:30:12;;;;;;;;;;;16.40;99.90;;;15.39;100.00;95935.13;10523713;28;2089;-74
2021/09/11 03:35:14;;;;;;;;;;;16.30;99.90;;;15.34;100.00;95935.25;10522775;28;2201;-75
2021/09/11 03:40:17;;;;;;;;;;;16.30;99.90;;;15.28;100.00;95932.94;10510692;28;2136;-74
2021/09/11 03:45:20;;;;;;;;;;;16.20;99.90;;;15.26;100.00;95927.78;10521900;28;2110;-75
2021/09/11 03:50:23;;;;;;;;;;;16.20;99.90;;;15.24;100.00;95930.00;10526147;28;2148;-74
2021/09/11 03:55:26;;;;;;;;;;;16.20;99.90;;;15.21;100.00;95927.91;10514265;28;1999;-75
2021/09/11 04:00:29;;;;;;;;;;;16.10;99.90;;;15.13;100.00;95920.44;10518401;28;2154;-74
2021/09/11 04:05:32;;;;;;;;;;;16.10;99.90;;;15.16;100.00;95924.47;10512590;28;2077;-75
2021/09/11 04:10:34;;;;;;;;;;;16.10;99.90;;;15.14;100.00;95922.88;10509090;28;2137;-73
2021/09/11 04:15:37;;;;;;;;;;;16.10;99.90;;;15.14;100.00;95927.47;10515532;28;2127;-75
2021/09/11 04:20:40;;;;;;;;;;;16.10;99.90;;;15.10;100.00;95926.47;10509795;28;2077;-75
2021/09/11 04:25:43;;;;;;;;;;;16.00;99.90;;;15.04;100.00;95922.25;10509120;28;2134;-75
2021/09/11 04:30:46;;;;;;;;;;;16.00;99.90;;;14.99;100.00;95920.44;10510569;28;2096;-75
2021/09/11 04:35:49;;;;;;;;;;;16.00;99.90;;;14.95;100.00;95915.91;10508784;28;2289;-74
2021/09/11 04:40:52;;;;;;;;;;;15.90;99.90;;;14.92;100.00;95919.22;10508801;28;1999;-75
2021/09/11 04:45:54;;;;;;;;;;;15.90;99.90;;;14.93;100.00;95918.09;10525426;28;2073;-73
2021/09/11 04:50:57;;;;;;;;;;;15.90;99.90;;;14.94;100.00;95925.94;10522906;28;2062;-74
2021/09/11 04:56:00;;;;;;;;;;;15.90;99.90;;;14.96;100.00;95922.94;10510870;28;2139;-74
2021/09/11 05:01:03;;;;;;;;;;;15.90;99.90;;;14.92;100.00;95935.47;10512350;28;2030;-74
2021/09/11 05:06:06;;;;;;;;;;;15.90;99.90;;;14.95;100.00;95935.69;10513392;28;2315;-74
2021/09/11 05:11:09;;;;;;;;;;;15.90;99.90;;;15.03;100.00;95939.59;10508388;28;2067;-75
2021/09/11 05:16:12;;;;;;;;;;;15.90;99.90;;;15.14;100.00;95952.66;10514477;28;2111;-73
2021/09/11 05:21:14;;;;;;;;;;;16.00;99.90;;;15.32;100.00;95947.44;10506695;28;2114;-74
2021/09/11 05:26:17;;;;;;;;;;;16.10;99.90;;;15.41;100.00;95951.09;10508120;28;2056;-73
2021/09/11 05:31:20;;;;;;;;;;;16.20;99.90;;;15.54;100.00;95960.34;10506395;28;2337;-76
2021/09/11 05:36:23;;;;;;;;;;;16.30;99.90;;;15.62;100.00;95963.16;10509296;28;2109;-73
2021/09/11 05:41:26;;;;;;;;;;;16.40;99.90;;;15.81;100.00;95970.41;10520241;28;1908;-73
2021/09/11 05:46:29;;;;;;;;;;;16.50;99.90;;;16.05;100.00;95976.41;10516010;28;2031;-74
2021/09/11 05:51:31;;;;;;;;;;;16.70;99.90;;;16.13;100.00;95974.88;10516056;28;1972;-74
2021/09/11 05:56:34;;;;;;;;;;;16.90;99.90;;;16.37;100.00;95978.16;10504577;28;2022;-74
2021/09/11 06:01:39;;;;;;;;;;;17.00;99.90;;;16.49;100.00;95980.34;10515436;28;2007;-74
2021/09/11 06:06:54;;;;;;;;;;;17.20;99.90;;;16.70;100.00;95973.34;10520885;28;2011;-74
2021/09/11 06:11:57;;;;;;;;;;;17.30;99.90;;;16.60;100.00;95970.84;10520258;28;2054;-73
2021/09/11 06:17:00;;;;;;;;;;;17.40;99.90;;;16.44;100.00;95975.03;10518820;28;2106;-73
2021/09/11 06:22:02;;;;;;;;;;;17.30;99.90;;;16.39;100.00;95972.41;10518611;28;2046;-73
2021/09/11 06:27:05;;;;;;;;;;;17.30;99.90;;;16.35;100.00;95968.69;10519379;28;2010;-73
2021/09/11 06:32:08;;;;;;;;;;;17.20;99.90;;;16.26;100.00;95960.50;10519608;28;1913;-74
2021/09/11 06:37:11;;;;;;;;;;;17.20;99.90;;;16.31;100.00;95963.09;10525568;28;2195;-73
2021/09/11 06:42:15;;;;;;;;;;;17.20;99.90;;;16.37;100.00;95971.94;10525917;28;2111;-74
2021/09/11 06:47:18;;;;;;;;;;;17.20;99.90;;;16.50;100.00;95971.09;10520695;28;1857;-73
2021/09/11 06:52:21;;;;;;;;;;;17.30;99.90;;;16.60;100.00;95970.84;10517409;28;1983;-73
2021/09/11 06:57:24;;;;;;;;;;;17.30;99.90;;;16.80;100.00;95976.94;10520664;28;2097;-73
2021/09/11 07:02:27;;;;;;;;;;;17.50;99.90;;;17.14;100.00;95974.47;10520498;28;1849;-73
2021/09/11 07:07:30;;;;;;;;;;;17.70;99.90;;;17.28;100.00;95969.75;10505578;28;2238;-72
2021/09/11 07:12:33;;;;;;;;;;;18.00;99.90;;;17.75;100.00;95977.50;10517180;28;2154;-73
2021/09/11 07:17:36;;;;;;;;;;;18.30;99.90;;;18.01;100.00;95975.69;10521888;28;2106;-72
2021/09/11 07:22:39;;;;;;;;;;;18.60;99.90;;;18.15;100.00;95972.84;10517097;28;2108;-73
2021/09/11 07:27:42;;;;;;;;;;;18.80;99.90;;;18.68;98.46;95969.06;10522983;28;2258;-72
2021/09/11 07:32:44;;;;;;;;;;;19.10;99.90;;;18.84;98.95;95963.97;10519726;28;2636;-74
2021/09/11 07:37:48;;;;;;;;;;;19.30;99.90;;;18.96;97.26;95960.56;10511717;28;2145;-73
2021/09/11 07:42:51;;;;;;;;;;;19.60;99.90;;;19.25;95.29;95968.06;10518145;28;2128;-73
2021/09/11 07:47:54;;;;;;;;;;;19.80;99.90;;;19.74;92.63;95966.66;10517611;28;2171;-73
2021/09/11 07:52:57;;;;;;;;;;;20.10;99.90;;;19.90;92.63;95973.16;10516108;28;2122;-73
2021/09/11 07:57:59;;;;;;;;;;;20.40;99.90;;;20.14;86.45;95971.75;10506471;28;2183;-73
2021/09/11 08:03:02;;;;;;;;;;;20.70;99.90;;;20.28;85.76;95974.22;10512980;28;2161;-73
2021/09/11 08:08:05;;;;;;;;;;;20.90;99.90;;;20.40;84.94;95964.19;10512361;28;2228;-73
2021/09/11 08:13:08;;;;;;;;;;;21.00;99.90;;;20.35;84.53;95969.03;10517544;28;2340;-73
2021/09/11 08:18:11;;;;;;;;;;;21.10;99.90;;;20.43;78.70;95974.47;10521361;28;1782;-72
2021/09/11 08:23:14;;;;;;;;;;;21.10;99.90;;;20.68;77.04;95975.44;10515727;28;2078;-72
2021/09/11 08:28:17;;;;;;;;;;;21.30;99.90;;;21.12;75.08;95977.78;10515476;28;1776;-73
2021/09/11 08:33:19;;;;;;;;;;;21.70;99.90;;;21.80;71.86;95979.00;10507945;28;2079;-73
2021/09/11 08:38:22;;;;;;;;;;;22.00;99.90;;;;;;10512585;28;2067;-73
2021/09/11 08:43:26;;;;;;;;;;;22.40;99.90;;;22.06;68.62;95975.94;10516996;28;1968;-73
2021/09/11 08:48:29;;;;;;;;;;;22.70;99.90;;;22.08;68.40;95979.16;10520009;28;2133;-73
2021/09/11 08:53:32;;;;;;;;;;;22.70;99.90;;;21.82;65.44;95978.66;10517913;28;1968;-73
2021/09/11 08:58:35;;;;;;;;;;;22.60;99.90;;;21.40;63.88;95978.03;10516879;28;2047;-73
2021/09/11 09:03:38;;;;;;;;;;;22.40;99.90;;;21.70;66.92;95982.22;10524929;28;2042;-73
2021/09/11 09:08:41;;;;;;;;;;;22.20;99.90;;;21.74;69.00;95982.31;10513602;28;2090;-72
2021/09/11 09:13:44;;;;;;;;;;;22.30;99.90;;;22.00;64.51;95979.25;10525699;28;2035;-72
2021/09/11 09:18:47;;;;;;;;;;;22.50;99.90;;;21.70;71.23;95975.94;10519339;28;2023;-74
2021/09/11 09:23:50;;;;;;;;;;;22.40;99.90;;;22.03;68.79;95984.06;10515455;28;1960;-73
2021/09/11 09:28:53;;;;;;;;;;;22.50;99.90;;;22.37;65.19;95983.59;10517180;28;2023;-72
2021/09/11 09:33:55;;;;;;;;;;;22.70;99.90;;;22.78;64.85;95980.94;10520093;28;2269;-72
2021/09/11 09:38:58;;;;;;;;;;;23.00;99.90;;;22.83;62.03;95977.91;10519169;28;2012;-72
2021/09/11 09:44:01;;;;;;;;;;;23.30;99.90;;;23.38;61.40;95971.69;10523028;28;1980;-72
2021/09/11 09:49:04;;;;;;;;;;;23.60;99.90;;;22.91;63.34;95979.78;10529981;28;2133;-71
2021/09/11 09:54:07;;;;;;;;;;;23.70;99.90;;;22.60;62.20;95978.44;10524356;28;1944;-72
2021/09/11 09:59:10;;;;;;;;;;;23.40;99.90;;;22.48;63.02;95983.16;10515471;28;2054;-72
2021/09/11 10:04:13;;;;;;;;;;;23.10;99.90;;;22.32;60.85;95980.31;10516376;28;2178;-72
2021/09/11 10:09:16;;;;;;;;;;;23.10;99.90;;;22.70;61.60;95973.63;10512578;28;2090;-73
2021/09/11 10:14:19;;;;;;;;;;;23.20;99.90;;;22.75;60.98;95976.13;10518769;28;2043;-75
2021/09/11 10:19:22;;;;;;;;;;;23.30;99.90;;;22.55;61.38;95975.94;10523678;28;1829;-73
2021/09/11 10:24:25;;;;;;;;;;;23.30;99.90;;;22.94;59.90;95968.09;10522981;28;1996;-73
2021/09/11 10:29:28;;;;;;;;;;;23.40;99.90;;;23.20;58.83;95957.47;10520409;28;1964;-74
2021/09/11 10:34:31;;;;;;;;;;;23.50;99.90;;;23.44;58.83;95951.06;10518753;28;2046;-73
2021/09/11 10:39:34;;;;;;;;;;;23.70;99.90;;;23.54;60.71;95955.25;10519782;28;2027;-73
2021/09/11 10:44:37;;;;;;;;;;;24.00;99.90;;;22.67;63.08;95959.47;10523063;28;1998;-73
2021/09/11 10:49:40;;;;;;;;;;;23.80;99.90;;;23.20;59.84;95948.44;10525501;28;2063;-73
2021/09/11 10:54:43;;;;;;;;;;;23.80;99.90;;;23.23;59.46;95941.50;10527511;28;2067;-73
2021/09/11 10:59:46;;;;;;;;;;;23.90;99.90;;;23.32;61.16;95934.69;10520067;28;2078;-73
2021/09/11 11:04:49;;;;;;;;;;;23.80;99.90;;;22.86;60.94;95928.72;10526922;28;1931;-72
2021/09/11 11:09:51;;;;;;;;;;;23.70;99.90;;;23.29;58.85;95923.63;10516626;28;1909;-72
2021/09/11 11:14:54;;;;;;;;;;;23.70;99.90;;;22.95;60.48;95925.03;10513746;28;2101;-73
2021/09/11 11:19:57;;;;;;;;;;;23.60;99.90;;;22.33;62.81;95927.94;10510560;28;1874;-72
2021/09/11 11:25:00;;;;;;;;;;;23.10;99.90;;;22.21;63.12;95922.50;10507456;28;2067;-73
2021/09/11 11:30:03;;;;;;;;;;;22.90;99.90;;;22.86;61.10;95922.44;10521475;28;2324;-74
2021/09/11 11:35:06;;;;;;;;;;;23.00;99.90;;;23.18;59.59;95918.66;10512195;28;2096;-75
2021/09/11 11:40:08;;;;;;;;;;;23.50;99.90;;;23.09;59.10;95909.75;10526881;28;1822;-74
2021/09/11 11:45:11;;;;;;;;;;;23.70;99.90;;;22.08;60.87;95898.97;10516211;28;2059;-75
2021/09/11 11:50:15;;;;;;;;;;;23.40;99.90;;;21.50;64.49;95899.09;10527005;28;1977;-75
2021/09/11 11:55:18;;;;;;;;;;;22.80;99.90;;;21.01;68.52;95907.16;10524238;28;2024;-74
2021/09/11 12:00:41;;;;;;;;;;;22.20;99.90;;;19.93;82.26;95903.50;10510182;28;1996;-74
2021/09/11 12:05:44;;;;;;;;;;;21.50;99.90;;;19.71;88.04;95905.38;10516120;28;1842;-74
2021/09/11 12:10:47;;;;;;;;;;;20.80;99.90;;;20.15;88.10;95902.38;10516897;28;2015;-75
2021/09/11 12:15:50;;;;;;;;;;;20.70;99.90;;;20.91;84.06;95890.38;10514562;28;1782;-75
2021/09/11 12:20:53;;;;;;;;;;;21.20;99.90;;;21.07;80.17;95883.16;10519030;28;2169;-75
2021/09/11 12:25:55;;;;;;;;;;;21.40;99.90;;;20.81;81.07;95883.41;10523348;28;2055;-74
2021/09/11 12:30:58;;;;;;;;;;;21.50;99.90;;;20.68;83.29;95870.84;10517731;28;1996;-75
2021/09/11 12:36:01;;;;;;;;;;;21.50;99.90;;;20.19;86.46;95881.50;10522523;28;1984;-76
2021/09/11 12:41:04;;;;;;;;;;;21.40;99.90;;;19.59;94.60;95891.63;10541384;28;1960;-75
2021/09/11 12:46:07;;;;;;;;;;;20.90;99.90;;;18.67;100.00;95896.69;10549482;28;1810;-76
2021/09/11 12:51:10;;;;;;;;;;;20.30;99.90;;;18.50;100.00;95891.22;10545189;28;2102;-76
2021/09/11 12:56:21;;;;;;;;;;;19.70;99.90;;;18.92;100.00;95880.63;10550602;28;2269;-76
2021/09/11 13:01:24;;;;;;;;;;;19.60;99.90;;;19.50;96.65;95877.22;10542562;28;2223;-77
2021/09/11 13:06:27;;;;;;;;;;;20.00;99.90;;;20.37;92.30;95868.53;10513097;28;2035;-75
2021/09/11 13:11:30;;;;;;;;;;;20.50;99.90;;;20.98;89.32;95866.84;10524588;28;2155;-76
2021/09/11 13:16:33;;;;;;;;;;;21.20;99.90;;;21.39;81.40;95848.72;10521395;28;2231;-76
2021/09/11 13:21:36;;;;;;;;;;;21.70;99.90;;;21.41;79.51;95851.91;10529496;28;2060;-75
2021/09/11 13:26:38;;;;;;;;;;;22.10;99.90;;;21.80;86.01;95844.13;10544854;28;2012;-76
2021/09/11 13:31:41;;;;;;;;;;;22.20;99.90;;;21.63;81.39;95837.00;10535323;28;2061;-77
2021/09/11 13:36:45;;;;;;;;;;;22.30;99.90;;;21.69;80.40;95835.59;10568357;28;2031;-75
2021/09/11 13:41:48;;;;;;;;;;;22.50;99.90;;;21.86;76.39;95835.34;10568021;28;2070;-75
2021/09/11 13:46:55;;;;;;;;;;;22.40;99.90;;;21.68;75.21;95831.28;10546225;28;2035;-74
2021/09/11 13:51:58;;;;;;;;;;;22.30;99.90;;;21.66;74.50;95824.56;10546023;28;1898;-77
2021/09/11 13:57:01;;;;;;;;;;;22.40;99.90;;;21.62;73.55;95834.56;10555293;28;2050;-77
2021/09/11 14:02:04;;;;;;;;;;;22.30;99.90;;;21.69;73.48;95832.84;10562511;28;2023;-78
2021/09/11 14:07:07;;;;;;;;;;;22.30;99.90;;;21.88;73.84;95828.75;10558236;28;1882;-78
2021/09/11 14:12:10;;;;;;;;;;;22.50;99.90;;;22.37;66.27;95832.97;10555435;28;2015;-78
2021/09/11 14:17:13;;;;;;;;;;;22.80;99.90;;;21.94;71.03;95841.84;10552872;28;1775;-78
2021/09/11 14:22:16;;;;;;;;;;;22.70;99.90;;;21.40;75.72;95831.16;10532282;28;2147;-79
2021/09/11 14:27:19;;;;;;;;;;;22.50;99.90;;;21.17;74.69;95832.72;10531146;28;2090;-79
2021/09/11 14:32:22;;;;;;;;;;;22.00;99.90;;;21.16;75.50;95842.06;10534172;28;2158;-79
2021/09/11 14:37:25;;;;;;;;;;;21.90;99.90;;;21.33;72.27;95839.16;10530732;28;1980;-78
2021/09/11 14:42:29;;;;;;;;;;;22.00;99.90;;;20.43;77.60;95837.94;10538491;28;2082;-78
2021/09/11 14:47:52;;;;;;;;;;;21.70;99.90;;;19.85;80.96;95845.16;10546941;28;1910;-78
2021/09/11 14:52:58;;;;;;;;;;;21.00;99.90;;;19.71;80.96;95853.53;10521849;28;2087;-79
2021/09/11 14:58:01;;;;;;;;;;;20.80;99.90;;;19.82;84.42;95855.91;10517428;28;2190;-79
2021/09/11 15:03:04;;;;;;;;;;;20.70;99.90;;;19.54;83.09;95850.13;10530615;28;2050;-79
2021/09/11 15:08:07;;;;;;;;;;;20.60;99.90;;;19.74;82.09;95843.94;10529566;28;2079;-79
2021/09/11 15:13:10;;;;;;;;;;;20.60;99.90;;;19.64;80.59;95847.03;10543229;28;2035;-80
2021/09/11 15:18:13;;;;;;;;;;;20.70;99.90;;;19.86;82.25;95846.75;10550105;28;1766;-79
2021/09/11 15:23:16;;;;;;;;;;;20.70;99.90;;;19.78;84.51;95844.03;10538424;28;2047;-80
2021/09/11 15:28:19;;;;;;;;;;;20.70;99.90;;;19.78;81.95;95844.84;10534776;28;2115;-80
2021/09/11 15:33:22;;;;;;;;;;;20.70;99.90;;;19.88;81.12;95838.22;10534467;28;1898;-79
2021/09/11 15:38:25;;;;;;;;;;;20.70;99.90;;;19.83;81.72;95841.94;10521649;28;2050;-80
2021/09/11 15:43:30;;;;;;;;;;;20.80;99.90;;;19.91;80.31;95835.63;10525273;28;2006;-79
2021/09/11 15:48:33;;;;;;;;;;;20.80;99.90;;;19.76;79.49;95824.50;10522645;28;2039;-78
2021/09/11 15:53:36;;;;;;;;;;;20.80;99.90;;;19.77;79.83;95831.53;10533198;28;1937;-78
2021/09/11 15:58:39;;;;;;;;;;;20.80;99.90;;;19.85;81.14;95828.78;10547207;28;1917;-80
2021/09/11 16:03:42;;;;;;;;;;;20.80;99.90;;;20.03;78.85;95821.25;10563785;28;2099;-79
2021/09/11 16:08:45;;;;;;;;;;;20.80;99.90;;;20.24;77.27;95821.25;10537983;28;1865;-79
2021/09/11 16:13:48;;;;;;;;;;;20.90;99.90;;;20.30;78.28;95822.66;10521637;28;2055;-78
2021/09/11 16:18:51;;;;;;;;;;;21.00;99.90;;;20.43;76.71;95827.03;10520334;28;2067;-80
2021/09/11 16:23:54;;;;;;;;;;;21.20;99.90;;;20.53;76.55;95820.38;10524230;28;2082;-79
2021/09/11 16:28:57;;;;;;;;;;;21.30;99.90;;;20.28;76.24;95821.38;10528803;28;2116;-77
2021/09/11 16:33:59;;;;;;;;;;;21.30;99.90;;;20.22;77.29;95820.78;10529687;28;1901;-77
2021/09/11 16:39:02;;;;;;;;;;;21.10;99.90;;;20.27;75.10;95817.06;10525988;28;2229;-80
2021/09/11 16:44:05;;;;;;;;;;;21.10;99.90;;;20.23;75.57;95822.38;10514360;28;1345;-78
2021/09/11 16:49:08;;;;;;;;;;;21.10;99.90;;;20.16;77.67;95827.56;10505838;28;1810;-77
2021/09/11 16:54:11;;;;;;;;;;;21.00;99.90;;;20.08;76.31;95833.91;10508233;28;1915;-78
2021/09/11 16:59:14;;;;;;;;;;;21.00;99.90;;;19.87;77.40;95831.16;10513507;28;1787;-78
2021/09/11 17:04:16;;;;;;;;;;;20.90;99.90;;;19.81;78.07;95829.75;10514703;28;1523;-77
2021/09/11 17:09:19;;;;;;;;;;;20.80;99.90;;;19.65;78.56;95840.44;10517207;28;1759;-77
2021/09/11 17:14:22;;;;;;;;;;;20.70;99.90;;;19.30;81.29;95831.63;10519760;28;1906;-79
2021/09/11 17:19:25;;;;;;;;;;;20.50;99.90;;;19.34;77.97;95830.66;10517229;28;1338;-77
2021/09/11 17:24:28;;;;;;;;;;;20.40;99.90;;;19.09;79.61;95834.28;10520514;28;1605;-78
2021/09/11 17:29:31;;;;;;;;;;;20.20;99.90;;;18.86;81.52;95837.22;10505534;28;1585;-77
2021/09/11 17:34:34;;;;;;;;;;;20.10;99.90;;;18.59;82.35;95849.28;10522902;28;1977;-78
2021/09/11 17:39:36;;;;;;;;;;;19.80;99.90;;;18.60;81.68;95852.78;10530255;28;1966;-77
2021/09/11 17:44:40;;;;;;;;;;;19.70;99.90;;;18.43;80.84;95852.78;10523409;28;3212;-77
2021/09/11 17:49:43;;;;;;;;;;;19.50;99.90;;;18.28;81.52;95857.63;10510565;28;3411;-78
2021/09/11 17:54:46;;;;;;;;;;;19.40;99.90;;;18.16;81.97;95862.09;10531467;28;3240;-79
2021/09/11 17:59:50;;;;;;;;;;;19.30;99.90;;;18.03;82.57;95880.16;10535849;28;2915;-78
2021/09/11 18:04:53;;;;;;;;;;;19.10;99.90;;;17.98;83.08;95880.31;10533894;28;2585;-78
2021/09/11 18:09:56;;;;;;;;;;;19.00;99.90;;;17.66;85.06;95876.88;10514560;28;2288;-78
2021/09/11 18:14:59;;;;;;;;;;;18.90;99.90;;;17.43;86.84;95888.94;10523323;28;2055;-78
2021/09/11 18:20:02;;;;;;;;;;;18.70;99.90;;;17.28;88.34;95890.97;10523501;28;2036;-78
2021/09/11 18:25:04;;;;;;;;;;;18.50;99.90;;;17.20;90.25;95896.38;10516610;28;1932;-78
2021/09/11 18:30:07;;;;;;;;;;;18.50;99.90;;;17.78;90.80;95907.00;10516219;28;2324;-77
2021/09/11 18:35:10;;;;;;;;;;;18.40;99.90;;;18.06;88.88;95912.94;10503030;28;2151;-78
2021/09/11 18:40:13;;;;;;;;;;;18.90;99.90;;;17.67;89.13;95916.50;10517328;28;2214;-78
2021/09/11 18:45:16;;;;;;;;;;;18.90;99.90;;;17.21;91.32;95922.41;10519447;28;1876;-78
2021/09/11 18:50:20;;;;;;;;;;;18.60;99.90;;;17.09;93.49;95928.41;10528299;28;2170;-78
2021/09/11 18:55:22;;;;;;;;;;;18.30;99.90;;;16.90;95.49;95920.47;10523443;28;2008;-77
2021/09/11 19:00:25;;;;;;;;;;;18.20;99.90;;;16.73;97.17;95926.59;10547309;28;2015;-78
2021/09/11 19:05:28;;;;;;;;;;;18.00;99.90;;;16.65;96.94;95930.00;10531846;28;1884;-78
2021/09/11 19:10:31;;;;;;;;;;;17.90;99.90;;;16.57;98.19;95927.25;10534759;28;2039;-77
2021/09/11 19:15:34;;;;;;;;;;;17.80;99.90;;;16.42;99.61;95931.13;10519687;28;1988;-77
2021/09/11 19:20:37;;;;;;;;;;;17.70;99.90;;;16.39;99.45;95926.28;10531590;28;2095;-77
2021/09/11 19:25:40;;;;;;;;;;;17.60;99.90;;;16.35;99.84;95936.16;10514195;28;1889;-77
2021/09/11 19:30:42;;;;;;;;;;;17.60;99.90;;;16.29;100.00;95940.13;10521555;28;2027;-76
2021/09/11 19:35:45;;;;;;;;;;;17.50;99.90;;;16.22;100.00;95940.50;10522174;28;2008;-77
2021/09/11 19:40:48;;;;;;;;;;;17.50;99.90;;;16.15;100.00;95945.53;10519845;28;2098;-77
2021/09/11 19:45:51;;;;;;;;;;;17.30;99.90;;;16.15;100.00;95951.75;10513012;28;1889;-77
2021/09/11 19:50:56;;;;;;;;;;;17.30;99.90;;;16.06;100.00;95950.91;10522513;28;2027;-77
2021/09/11 19:55:59;;;;;;;;;;;17.20;99.90;;;16.02;100.00;95954.50;10515460;28;2090;-80
2021/09/11 20:01:02;;;;;;;;;;;17.20;99.90;;;15.94;100.00;95948.69;10523466;28;2036;-77
2021/09/11 20:06:05;;;;;;;;;;;17.10;99.90;;;15.93;100.00;95959.84;10531532;28;1905;-77
2021/09/11 20:11:08;;;;;;;;;;;17.10;99.90;;;15.84;100.00;95956.22;10526075;28;1913;-78
2021/09/11 20:16:11;;;;;;;;;;;17.00;99.90;;;15.72;100.00;95961.38;10506092;28;2031;-77
2021/09/11 20:21:14;;;;;;;;;;;16.90;99.90;;;15.70;100.00;95958.16;10520915;28;2022;-76
2021/09/11 20:26:16;;;;;;;;;;;16.90;99.90;;;15.68;100.00;95951.13;10528431;28;2090;-75
2021/09/11 20:31:19;;;;;;;;;;;16.80;99.90;;;15.71;100.00;95959.75;10529096;28;1984;-76
2021/09/11 20:36:22;;;;;;;;;;;16.80;99.90;;;15.61;100.00;95939.84;10518522;28;2122;-77
2021/09/11 20:41:25;;;;;;;;;;;16.70;99.90;;;15.59;100.00;95947.50;10516191;28;1972;-77
2021/09/11 20:46:28;;;;;;;;;;;16.70;99.90;;;15.54;100.00;95954.91;10522781;28;1996;-76
2021/09/11 20:51:31;;;;;;;;;;;16.70;99.90;;;15.46;100.00;95959.13;10521911;28;2017;-78
2021/09/11 20:56:33;;;;;;;;;;;16.60;99.90;;;15.43;100.00;95954.28;10517362;28;2143;-77
2021/09/11 21:01:36;;;;;;;;;;;16.60;99.90;;;15.38;100.00;95952.47;10526295;28;2541;-78
2021/09/11 21:06:40;;;;;;;;;;;16.50;99.90;;;15.31;100.00;95948.56;10531946;28;1966;-77
2021/09/11 21:11:43;;;;;;;;;;;16.50;99.90;;;15.35;100.00;95958.50;10524398;28;1967;-78
2021/09/11 21:16:46;;;;;;;;;;;16.50;99.90;;;15.26;100.00;95951.34;10524210;28;2031;-77
2021/09/11 21:21:49;;;;;;;;;;;16.50;99.90;;;15.31;100.00;95956.69;10510826;28;1869;-78
2021/09/11 21:26:51;;;;;;;;;;;16.40;99.90;;;15.33;100.00;95954.47;10509087;28;2004;-78
2021/09/11 21:31:54;;;;;;;;;;;16.40;99.90;;;15.22;100.00;95947.66;10524151;28;1821;-77
2021/09/11 21:36:57;;;;;;;;;;;16.40;99.90;;;15.23;100.00;95951.97;10516601;28;2106;-77
2021/09/11 21:42:03;;;;;;;;;;;16.40;99.90;;;15.21;100.00;95962.31;10519769;28;2026;-77
2021/09/11 21:47:06;;;;;;;;;;;16.40;99.90;;;15.17;100.00;95964.00;10514742;28;2034;-78
2021/09/11 21:52:12;;;;;;;;;;;16.30;99.90;;;15.13;100.00;95970.00;10515773;28;2167;-78
2021/09/11 21:57:15;;;;;;;;;;;16.20;99.90;;;15.13;100.00;95964.56;10541610;28;2095;-77
2021/09/11 22:02:18;;;;;;;;;;;16.20;99.90;;;15.12;100.00;95965.69;10532700;28;2131;-76
2021/09/11 22:07:21;;;;;;;;;;;16.20;99.90;;;15.10;100.00;95965.19;10519909;28;2128;-76
2021/09/11 22:12:23;;;;;;;;;;;16.20;99.90;;;15.07;100.00;95962.25;10519214;28;2048;-77
2021/09/11 22:17:26;;;;;;;;;;;16.20;99.90;;;15.06;100.00;95964.16;10526415;28;2019;-76
2021/09/11 22:22:29;;;;;;;;;;;16.20;99.90;;;15.04;100.00;95963.66;10521346;28;2178;-77
2021/09/11 22:27:32;;;;;;;;;;;16.10;99.90;;;14.97;100.00;95974.06;10522314;28;2061;-77
2021/09/11 22:32:35;;;;;;;;;;;16.10;99.90;;;14.97;100.00;95963.25;10527141;28;2181;-77
2021/09/11 22:37:38;;;;;;;;;;;16.10;99.90;;;14.97;100.00;95968.66;10525905;28;2014;-76
2021/09/11 22:42:40;;;;;;;;;;;16.10;99.90;;;14.96;100.00;95961.63;10522127;28;2075;-76
2021/09/11 22:47:43;;;;;;;;;;;16.10;99.90;;;14.99;100.00;95971.06;10513642;28;2062;-77
2021/09/11 22:52:46;;;;;;;;;;;16.10;99.90;;;14.90;100.00;95972.84;10523247;28;2024;-77
2021/09/11 22:57:49;;;;;;;;;;;16.00;99.90;;;14.89;100.00;95977.47;10512888;28;2138;-77
2021/09/11 23:02:52;;;;;;;;;;;16.00;99.90;;;14.93;100.00;95973.03;10513208;28;2146;-76
2021/09/11 23:07:56;;;;;;;;;;;16.00;99.90;;;14.84;100.00;95967.50;10516548;28;2042;-77